sensor_id;sensor_type;location;lat;lon;timestamp;P1;durP1;ratioP1;P2;durP2;ratioP2
12088;SDS011;6107;49.078;8.578;2023-05-10T00:02:24;3.43;;;2.20;;
12088;SDS011;6107;49.078;8.578;2023-05-10T00:04:50;2.70;;;2.17;;
12088;SDS011;6107;49.078;8.578;2023-05-10T00:07:16;2.67;;;2.20;;
12088;SDS011;6107;49.078;8.578;2023-05-10T00:09:42;3.33;;;2.23;;
12088;SDS011;6107;49.078;8.578;2023-05-10T00:12:08;2.30;;;2.10;;
12088;SDS011;6107;49.078;8.578;2023-05-10T00:14:34;2.20;;;2.00;;
12088;SDS011;6107;49.078;8.578;2023-05-10T00:16:59;2.40;;;2.20;;
12088;SDS011;6107;49.078;8.578;2023-05-10T00:19:25;2.07;;;1.90;;
12088;SDS011;6107;49.078;8.578;2023-05-10T00:21:50;3.90;;;2.30;;
12088;SDS011;6107;49.078;8.578;2023-05-10T00:24:16;2.43;;;1.90;;
12088;SDS011;6107;49.078;8.578;2023-05-10T00:26:41;4.73;;;2.00;;
12088;SDS011;6107;49.078;8.578;2023-05-10T00:29:07;3.20;;;2.10;;
12088;SDS011;6107;49.078;8.578;2023-05-10T00:31:32;2.47;;;2.00;;
12088;SDS011;6107;49.078;8.578;2023-05-10T00:33:58;2.03;;;1.87;;
12088;SDS011;6107;49.078;8.578;2023-05-10T00:36:24;2.77;;;1.77;;
12088;SDS011;6107;49.078;8.578;2023-05-10T00:38:49;3.57;;;2.00;;
12088;SDS011;6107;49.078;8.578;2023-05-10T00:41:15;2.43;;;1.90;;
12088;SDS011;6107;49.078;8.578;2023-05-10T00:43:40;1.77;;;1.67;;
12088;SDS011;6107;49.078;8.578;2023-05-10T00:46:06;3.67;;;1.70;;
12088;SDS011;6107;49.078;8.578;2023-05-10T00:48:32;1.70;;;1.60;;
12088;SDS011;6107;49.078;8.578;2023-05-10T00:50:58;2.23;;;1.63;;
12088;SDS011;6107;49.078;8.578;2023-05-10T00:53:24;1.80;;;1.70;;
12088;SDS011;6107;49.078;8.578;2023-05-10T00:55:50;2.10;;;1.90;;
12088;SDS011;6107;49.078;8.578;2023-05-10T00:58:16;3.33;;;1.67;;
12088;SDS011;6107;49.078;8.578;2023-05-10T01:00:42;1.70;;;1.60;;
12088;SDS011;6107;49.078;8.578;2023-05-10T01:03:10;2.20;;;2.00;;
12088;SDS011;6107;49.078;8.578;2023-05-10T01:05:36;2.20;;;2.00;;
12088;SDS011;6107;49.078;8.578;2023-05-10T01:08:02;1.77;;;1.67;;
12088;SDS011;6107;49.078;8.578;2023-05-10T01:10:28;2.33;;;2.10;;
12088;SDS011;6107;49.078;8.578;2023-05-10T01:12:54;2.87;;;2.10;;
12088;SDS011;6107;49.078;8.578;2023-05-10T01:15:20;2.30;;;2.10;;
12088;SDS011;6107;49.078;8.578;2023-05-10T01:17:46;1.80;;;1.70;;
12088;SDS011;6107;49.078;8.578;2023-05-10T01:20:13;3.40;;;1.80;;
12088;SDS011;6107;49.078;8.578;2023-05-10T01:22:48;1.80;;;1.70;;
12088;SDS011;6107;49.078;8.578;2023-05-10T01:25:45;2.50;;;1.93;;
12088;SDS011;6107;49.078;8.578;2023-05-10T01:34:19;2.70;;;1.83;;
12088;SDS011;6107;49.078;8.578;2023-05-10T01:36:56;3.80;;;2.17;;
12088;SDS011;6107;49.078;8.578;2023-05-10T01:42:14;4.50;;;2.30;;
12088;SDS011;6107;49.078;8.578;2023-05-10T01:47:38;2.40;;;2.20;;
12088;SDS011;6107;49.078;8.578;2023-05-10T01:50:10;3.40;;;2.30;;
12088;SDS011;6107;49.078;8.578;2023-05-10T01:52:42;4.83;;;2.30;;
12088;SDS011;6107;49.078;8.578;2023-05-10T01:55:14;2.37;;;2.13;;
12088;SDS011;6107;49.078;8.578;2023-05-10T01:57:42;2.30;;;2.10;;
12088;SDS011;6107;49.078;8.578;2023-05-10T02:00:12;2.67;;;2.37;;
12088;SDS011;6107;49.078;8.578;2023-05-10T02:02:40;3.80;;;2.20;;
12088;SDS011;6107;49.078;8.578;2023-05-10T02:05:09;4.93;;;2.30;;
12088;SDS011;6107;49.078;8.578;2023-05-10T02:07:38;2.73;;;2.33;;
12088;SDS011;6107;49.078;8.578;2023-05-10T02:10:05;3.23;;;2.50;;
12088;SDS011;6107;49.078;8.578;2023-05-10T02:12:35;2.53;;;2.33;;
12088;SDS011;6107;49.078;8.578;2023-05-10T02:15:03;3.10;;;2.73;;
12088;SDS011;6107;49.078;8.578;2023-05-10T02:17:31;2.80;;;2.50;;
12088;SDS011;6107;49.078;8.578;2023-05-10T02:19:57;2.73;;;2.40;;
12088;SDS011;6107;49.078;8.578;2023-05-10T02:22:25;3.90;;;2.97;;
12088;SDS011;6107;49.078;8.578;2023-05-10T02:24:52;3.43;;;2.80;;
12088;SDS011;6107;49.078;8.578;2023-05-10T02:27:20;3.70;;;3.10;;
12088;SDS011;6107;49.078;8.578;2023-05-10T02:29:48;4.83;;;3.07;;
12088;SDS011;6107;49.078;8.578;2023-05-10T02:32:15;4.90;;;3.50;;
12088;SDS011;6107;49.078;8.578;2023-05-10T02:34:42;3.77;;;3.23;;
12088;SDS011;6107;49.078;8.578;2023-05-10T02:37:10;5.77;;;3.70;;
12088;SDS011;6107;49.078;8.578;2023-05-10T02:39:40;6.83;;;3.90;;
12088;SDS011;6107;49.078;8.578;2023-05-10T02:42:10;4.53;;;3.90;;
12088;SDS011;6107;49.078;8.578;2023-05-10T02:44:39;6.07;;;4.40;;
12088;SDS011;6107;49.078;8.578;2023-05-10T02:47:06;5.73;;;3.50;;
12088;SDS011;6107;49.078;8.578;2023-05-10T02:49:32;4.47;;;3.97;;
12088;SDS011;6107;49.078;8.578;2023-05-10T02:51:59;5.13;;;4.00;;
12088;SDS011;6107;49.078;8.578;2023-05-10T02:54:29;5.20;;;4.10;;
12088;SDS011;6107;49.078;8.578;2023-05-10T02:56:57;5.57;;;4.83;;
12088;SDS011;6107;49.078;8.578;2023-05-10T02:59:27;7.00;;;4.67;;
12088;SDS011;6107;49.078;8.578;2023-05-10T03:01:53;5.70;;;4.70;;
12088;SDS011;6107;49.078;8.578;2023-05-10T03:04:18;5.77;;;4.80;;
12088;SDS011;6107;49.078;8.578;2023-05-10T03:06:44;5.10;;;4.43;;
12088;SDS011;6107;49.078;8.578;2023-05-10T03:09:12;6.30;;;5.00;;
12088;SDS011;6107;49.078;8.578;2023-05-10T03:11:53;6.80;;;5.63;;
12088;SDS011;6107;49.078;8.578;2023-05-10T03:14:34;7.17;;;5.50;;
12088;SDS011;6107;49.078;8.578;2023-05-10T03:17:23;7.73;;;5.77;;
12088;SDS011;6107;49.078;8.578;2023-05-10T03:19:56;7.30;;;5.90;;
12088;SDS011;6107;49.078;8.578;2023-05-10T03:22:29;8.57;;;6.20;;
12088;SDS011;6107;49.078;8.578;2023-05-10T03:24:56;7.93;;;6.17;;
12088;SDS011;6107;49.078;8.578;2023-05-10T03:27:23;6.80;;;5.43;;
12088;SDS011;6107;49.078;8.578;2023-05-10T03:29:51;9.07;;;5.50;;
12088;SDS011;6107;49.078;8.578;2023-05-10T03:32:18;7.20;;;5.67;;
12088;SDS011;6107;49.078;8.578;2023-05-10T03:34:44;6.50;;;5.13;;
12088;SDS011;6107;49.078;8.578;2023-05-10T03:37:09;7.27;;;5.50;;
12088;SDS011;6107;49.078;8.578;2023-05-10T03:39:35;7.03;;;5.30;;
12088;SDS011;6107;49.078;8.578;2023-05-10T03:42:00;6.23;;;5.07;;
12088;SDS011;6107;49.078;8.578;2023-05-10T03:44:26;6.07;;;5.40;;
12088;SDS011;6107;49.078;8.578;2023-05-10T03:46:51;6.07;;;5.47;;
12088;SDS011;6107;49.078;8.578;2023-05-10T03:49:17;8.13;;;5.40;;
12088;SDS011;6107;49.078;8.578;2023-05-10T03:51:43;6.63;;;5.43;;
12088;SDS011;6107;49.078;8.578;2023-05-10T03:54:08;7.30;;;5.03;;
12088;SDS011;6107;49.078;8.578;2023-05-10T03:56:34;6.77;;;5.27;;
12088;SDS011;6107;49.078;8.578;2023-05-10T03:58:59;6.00;;;5.00;;
12088;SDS011;6107;49.078;8.578;2023-05-10T04:01:25;5.67;;;5.00;;
12088;SDS011;6107;49.078;8.578;2023-05-10T04:03:51;6.80;;;5.37;;
12088;SDS011;6107;49.078;8.578;2023-05-10T04:06:16;6.63;;;5.37;;
12088;SDS011;6107;49.078;8.578;2023-05-10T04:08:42;7.67;;;5.93;;
12088;SDS011;6107;49.078;8.578;2023-05-10T04:11:08;9.43;;;5.63;;
12088;SDS011;6107;49.078;8.578;2023-05-10T04:13:34;7.57;;;5.70;;
12088;SDS011;6107;49.078;8.578;2023-05-10T04:16:00;6.70;;;5.50;;
12088;SDS011;6107;49.078;8.578;2023-05-10T04:18:28;6.70;;;6.00;;
12088;SDS011;6107;49.078;8.578;2023-05-10T04:20:55;7.23;;;5.13;;
12088;SDS011;6107;49.078;8.578;2023-05-10T04:23:20;9.10;;;5.07;;
12088;SDS011;6107;49.078;8.578;2023-05-10T04:25:46;5.60;;;5.03;;
12088;SDS011;6107;49.078;8.578;2023-05-10T04:28:12;8.70;;;5.50;;
12088;SDS011;6107;49.078;8.578;2023-05-10T04:30:37;7.53;;;4.90;;
12088;SDS011;6107;49.078;8.578;2023-05-10T04:33:03;6.77;;;4.57;;
12088;SDS011;6107;49.078;8.578;2023-05-10T04:35:29;9.63;;;4.73;;
12088;SDS011;6107;49.078;8.578;2023-05-10T04:37:54;5.43;;;4.50;;
12088;SDS011;6107;49.078;8.578;2023-05-10T04:40:20;6.83;;;5.27;;
12088;SDS011;6107;49.078;8.578;2023-05-10T04:42:46;5.63;;;5.03;;
12088;SDS011;6107;49.078;8.578;2023-05-10T04:45:11;7.20;;;5.03;;
12088;SDS011;6107;49.078;8.578;2023-05-10T04:47:39;5.77;;;4.93;;
12088;SDS011;6107;49.078;8.578;2023-05-10T04:50:05;5.30;;;4.63;;
12088;SDS011;6107;49.078;8.578;2023-05-10T04:52:31;5.20;;;4.40;;
12088;SDS011;6107;49.078;8.578;2023-05-10T04:54:56;8.50;;;4.63;;
12088;SDS011;6107;49.078;8.578;2023-05-10T04:57:22;6.57;;;4.67;;
12088;SDS011;6107;49.078;8.578;2023-05-10T04:59:48;5.80;;;4.23;;
12088;SDS011;6107;49.078;8.578;2023-05-10T05:02:15;4.90;;;4.30;;
12088;SDS011;6107;49.078;8.578;2023-05-10T05:04:41;6.17;;;4.77;;
12088;SDS011;6107;49.078;8.578;2023-05-10T05:07:06;4.90;;;4.20;;
12088;SDS011;6107;49.078;8.578;2023-05-10T05:09:32;5.00;;;4.03;;
12088;SDS011;6107;49.078;8.578;2023-05-10T05:11:58;4.17;;;3.77;;
12088;SDS011;6107;49.078;8.578;2023-05-10T05:14:23;8.57;;;4.00;;
12088;SDS011;6107;49.078;8.578;2023-05-10T05:16:52;10.83;;;4.97;;
12088;SDS011;6107;49.078;8.578;2023-05-10T05:19:17;6.03;;;4.93;;
12088;SDS011;6107;49.078;8.578;2023-05-10T05:21:43;6.10;;;4.40;;
12088;SDS011;6107;49.078;8.578;2023-05-10T05:24:09;5.83;;;4.47;;
12088;SDS011;6107;49.078;8.578;2023-05-10T05:26:36;6.27;;;4.60;;
12088;SDS011;6107;49.078;8.578;2023-05-10T05:29:01;6.90;;;4.90;;
12088;SDS011;6107;49.078;8.578;2023-05-10T05:31:27;5.00;;;4.20;;
12088;SDS011;6107;49.078;8.578;2023-05-10T05:33:53;8.90;;;4.53;;
12088;SDS011;6107;49.078;8.578;2023-05-10T05:36:19;6.63;;;4.37;;
12088;SDS011;6107;49.078;8.578;2023-05-10T05:38:44;5.80;;;4.63;;
12088;SDS011;6107;49.078;8.578;2023-05-10T05:41:10;7.43;;;4.93;;
12088;SDS011;6107;49.078;8.578;2023-05-10T05:43:35;5.70;;;4.23;;
12088;SDS011;6107;49.078;8.578;2023-05-10T05:46:01;4.87;;;4.37;;
12088;SDS011;6107;49.078;8.578;2023-05-10T05:48:26;5.47;;;4.60;;
12088;SDS011;6107;49.078;8.578;2023-05-10T05:50:55;7.27;;;4.63;;
12088;SDS011;6107;49.078;8.578;2023-05-10T05:53:21;6.60;;;4.73;;
12088;SDS011;6107;49.078;8.578;2023-05-10T05:56:05;5.40;;;3.90;;
12088;SDS011;6107;49.078;8.578;2023-05-10T05:58:31;4.67;;;4.07;;
12088;SDS011;6107;49.078;8.578;2023-05-10T06:00:56;5.97;;;4.07;;
12088;SDS011;6107;49.078;8.578;2023-05-10T06:03:22;5.23;;;3.90;;
12088;SDS011;6107;49.078;8.578;2023-05-10T06:05:47;4.50;;;3.77;;
12088;SDS011;6107;49.078;8.578;2023-05-10T06:08:13;5.30;;;4.00;;
12088;SDS011;6107;49.078;8.578;2023-05-10T06:10:38;4.53;;;3.70;;
12088;SDS011;6107;49.078;8.578;2023-05-10T06:13:04;4.57;;;3.70;;
12088;SDS011;6107;49.078;8.578;2023-05-10T06:15:30;4.90;;;3.50;;
12088;SDS011;6107;49.078;8.578;2023-05-10T06:17:55;4.43;;;3.70;;
12088;SDS011;6107;49.078;8.578;2023-05-10T06:20:22;4.23;;;3.40;;
12088;SDS011;6107;49.078;8.578;2023-05-10T06:22:47;5.33;;;3.20;;
12088;SDS011;6107;49.078;8.578;2023-05-10T06:25:13;5.73;;;3.30;;
12088;SDS011;6107;49.078;8.578;2023-05-10T06:27:39;3.37;;;2.83;;
12088;SDS011;6107;49.078;8.578;2023-05-10T06:30:05;5.83;;;2.90;;
12088;SDS011;6107;49.078;8.578;2023-05-10T06:32:31;3.10;;;2.80;;
12088;SDS011;6107;49.078;8.578;2023-05-10T06:34:57;4.77;;;2.50;;
12088;SDS011;6107;49.078;8.578;2023-05-10T06:37:22;4.07;;;2.63;;
12088;SDS011;6107;49.078;8.578;2023-05-10T06:39:48;4.20;;;2.40;;
12088;SDS011;6107;49.078;8.578;2023-05-10T06:42:13;3.70;;;2.87;;
12088;SDS011;6107;49.078;8.578;2023-05-10T06:44:39;3.27;;;2.13;;
12088;SDS011;6107;49.078;8.578;2023-05-10T06:47:04;4.77;;;2.40;;
12088;SDS011;6107;49.078;8.578;2023-05-10T06:49:30;3.03;;;2.20;;
12088;SDS011;6107;49.078;8.578;2023-05-10T06:51:55;2.93;;;2.20;;
12088;SDS011;6107;49.078;8.578;2023-05-10T06:54:21;2.33;;;2.13;;
12088;SDS011;6107;49.078;8.578;2023-05-10T06:56:48;2.93;;;2.10;;
12088;SDS011;6107;49.078;8.578;2023-05-10T06:59:13;2.77;;;1.97;;
12088;SDS011;6107;49.078;8.578;2023-05-10T07:01:40;2.50;;;2.07;;
12088;SDS011;6107;49.078;8.578;2023-05-10T07:04:05;2.80;;;2.17;;
12088;SDS011;6107;49.078;8.578;2023-05-10T07:06:32;3.63;;;1.70;;
12088;SDS011;6107;49.078;8.578;2023-05-10T07:08:58;2.50;;;1.97;;
12088;SDS011;6107;49.078;8.578;2023-05-10T07:11:24;2.70;;;1.77;;
12088;SDS011;6107;49.078;8.578;2023-05-10T07:13:49;2.33;;;1.57;;
12088;SDS011;6107;49.078;8.578;2023-05-10T07:16:15;2.00;;;1.80;;
12088;SDS011;6107;49.078;8.578;2023-05-10T07:18:40;3.07;;;1.90;;
12088;SDS011;6107;49.078;8.578;2023-05-10T07:21:06;2.47;;;1.80;;
12088;SDS011;6107;49.078;8.578;2023-05-10T07:23:31;2.17;;;1.87;;
12088;SDS011;6107;49.078;8.578;2023-05-10T07:25:57;2.20;;;2.00;;
12088;SDS011;6107;49.078;8.578;2023-05-10T07:28:23;3.67;;;2.10;;
12088;SDS011;6107;49.078;8.578;2023-05-10T07:30:51;2.67;;;1.57;;
12088;SDS011;6107;49.078;8.578;2023-05-10T07:33:17;4.30;;;1.80;;
12088;SDS011;6107;49.078;8.578;2023-05-10T07:35:42;3.10;;;1.90;;
12088;SDS011;6107;49.078;8.578;2023-05-10T07:38:08;3.03;;;1.80;;
12088;SDS011;6107;49.078;8.578;2023-05-10T07:40:35;3.57;;;1.60;;
12088;SDS011;6107;49.078;8.578;2023-05-10T07:43:01;2.57;;;1.80;;
12088;SDS011;6107;49.078;8.578;2023-05-10T07:45:27;7.77;;;3.03;;
12088;SDS011;6107;49.078;8.578;2023-05-10T07:47:53;2.53;;;1.80;;
12088;SDS011;6107;49.078;8.578;2023-05-10T07:50:19;5.90;;;2.00;;
12088;SDS011;6107;49.078;8.578;2023-05-10T07:52:45;1.80;;;1.60;;
12088;SDS011;6107;49.078;8.578;2023-05-10T07:55:11;3.37;;;1.80;;
12088;SDS011;6107;49.078;8.578;2023-05-10T07:57:37;2.30;;;1.83;;
12088;SDS011;6107;49.078;8.578;2023-05-10T08:00:03;4.77;;;1.80;;
12088;SDS011;6107;49.078;8.578;2023-05-10T08:02:29;1.67;;;1.57;;
12088;SDS011;6107;49.078;8.578;2023-05-10T08:04:55;3.27;;;1.60;;
12088;SDS011;6107;49.078;8.578;2023-05-10T08:07:20;2.33;;;1.80;;
12088;SDS011;6107;49.078;8.578;2023-05-10T08:09:46;2.27;;;1.80;;
12088;SDS011;6107;49.078;8.578;2023-05-10T08:12:12;4.77;;;1.87;;
12088;SDS011;6107;49.078;8.578;2023-05-10T08:14:37;2.60;;;1.80;;
12088;SDS011;6107;49.078;8.578;2023-05-10T08:17:03;3.23;;;2.00;;
12088;SDS011;6107;49.078;8.578;2023-05-10T08:19:29;3.40;;;1.80;;
12088;SDS011;6107;49.078;8.578;2023-05-10T08:21:54;2.00;;;1.80;;
12088;SDS011;6107;49.078;8.578;2023-05-10T08:24:20;1.70;;;1.60;;
12088;SDS011;6107;49.078;8.578;2023-05-10T08:26:46;2.93;;;1.70;;
12088;SDS011;6107;49.078;8.578;2023-05-10T08:29:12;3.37;;;1.60;;
12088;SDS011;6107;49.078;8.578;2023-05-10T08:31:41;4.33;;;1.70;;
12088;SDS011;6107;49.078;8.578;2023-05-10T08:34:06;2.50;;;1.90;;
12088;SDS011;6107;49.078;8.578;2023-05-10T08:36:32;1.97;;;1.73;;
12088;SDS011;6107;49.078;8.578;2023-05-10T08:38:58;2.63;;;1.53;;
12088;SDS011;6107;49.078;8.578;2023-05-10T08:41:23;1.60;;;1.50;;
12088;SDS011;6107;49.078;8.578;2023-05-10T08:43:59;1.40;;;1.30;;
12088;SDS011;6107;49.078;8.578;2023-05-10T08:46:33;2.10;;;1.47;;
12088;SDS011;6107;49.078;8.578;2023-05-10T08:49:00;1.77;;;1.53;;
12088;SDS011;6107;49.078;8.578;2023-05-10T08:51:29;1.87;;;1.43;;
12088;SDS011;6107;49.078;8.578;2023-05-10T08:54:00;1.53;;;1.43;;
12088;SDS011;6107;49.078;8.578;2023-05-10T08:56:29;2.37;;;1.40;;
12088;SDS011;6107;49.078;8.578;2023-05-10T08:58:54;1.87;;;1.50;;
12088;SDS011;6107;49.078;8.578;2023-05-10T09:01:21;1.77;;;1.50;;
12088;SDS011;6107;49.078;8.578;2023-05-10T09:03:47;1.83;;;1.53;;
12088;SDS011;6107;49.078;8.578;2023-05-10T09:06:13;2.17;;;1.60;;
12088;SDS011;6107;49.078;8.578;2023-05-10T09:08:39;3.93;;;1.73;;
12088;SDS011;6107;49.078;8.578;2023-05-10T09:11:06;1.73;;;1.50;;
12088;SDS011;6107;49.078;8.578;2023-05-10T09:13:33;2.27;;;1.70;;
12088;SDS011;6107;49.078;8.578;2023-05-10T09:16:01;2.83;;;1.70;;
12088;SDS011;6107;49.078;8.578;2023-05-10T09:18:27;2.93;;;1.60;;
12088;SDS011;6107;49.078;8.578;2023-05-10T09:20:53;1.80;;;1.53;;
12088;SDS011;6107;49.078;8.578;2023-05-10T09:23:19;2.03;;;1.70;;
12088;SDS011;6107;49.078;8.578;2023-05-10T09:25:44;1.83;;;1.60;;
12088;SDS011;6107;49.078;8.578;2023-05-10T09:28:10;1.70;;;1.60;;
12088;SDS011;6107;49.078;8.578;2023-05-10T09:30:37;1.70;;;1.60;;
12088;SDS011;6107;49.078;8.578;2023-05-10T09:33:02;1.70;;;1.30;;
12088;SDS011;6107;49.078;8.578;2023-05-10T09:35:29;1.70;;;1.50;;
12088;SDS011;6107;49.078;8.578;2023-05-10T09:37:57;1.57;;;1.40;;
12088;SDS011;6107;49.078;8.578;2023-05-10T09:40:24;3.13;;;1.50;;
12088;SDS011;6107;49.078;8.578;2023-05-10T09:42:52;1.80;;;1.40;;
12088;SDS011;6107;49.078;8.578;2023-05-10T09:45:19;1.40;;;1.30;;
12088;SDS011;6107;49.078;8.578;2023-05-10T09:47:46;3.13;;;1.73;;
12088;SDS011;6107;49.078;8.578;2023-05-10T09:50:11;1.60;;;1.50;;
12088;SDS011;6107;49.078;8.578;2023-05-10T09:52:45;7.43;;;1.40;;
12088;SDS011;6107;49.078;8.578;2023-05-10T09:55:22;1.83;;;1.40;;
12088;SDS011;6107;49.078;8.578;2023-05-10T09:57:49;4.10;;;1.50;;
12088;SDS011;6107;49.078;8.578;2023-05-10T10:00:24;1.40;;;1.30;;
12088;SDS011;6107;49.078;8.578;2023-05-10T10:02:56;1.50;;;1.40;;
12088;SDS011;6107;49.078;8.578;2023-05-10T10:05:32;1.30;;;1.20;;
12088;SDS011;6107;49.078;8.578;2023-05-10T10:08:00;5.35;;;1.40;;
12088;SDS011;6107;49.078;8.578;2023-05-10T10:10:29;1.10;;;1.05;;
12088;SDS011;6107;49.078;8.578;2023-05-10T10:12:57;1.40;;;1.10;;
12088;SDS011;6107;49.078;8.578;2023-05-10T10:15:23;3.63;;;1.30;;
12088;SDS011;6107;49.078;8.578;2023-05-10T10:17:50;1.90;;;1.20;;
12088;SDS011;6107;49.078;8.578;2023-05-10T10:20:16;1.53;;;1.40;;
12088;SDS011;6107;49.078;8.578;2023-05-10T10:22:43;2.25;;;1.42;;
12088;SDS011;6107;49.078;8.578;2023-05-10T10:25:09;3.25;;;1.20;;
12088;SDS011;6107;49.078;8.578;2023-05-10T10:27:41;3.30;;;1.20;;
12088;SDS011;6107;49.078;8.578;2023-05-10T10:30:39;1.30;;;1.20;;
12088;SDS011;6107;49.078;8.578;2023-05-10T10:33:13;3.53;;;1.20;;
12088;SDS011;6107;49.078;8.578;2023-05-10T10:35:48;2.15;;;1.10;;
12088;SDS011;6107;49.078;8.578;2023-05-10T10:38:15;3.03;;;1.30;;
12088;SDS011;6107;49.078;8.578;2023-05-10T10:40:42;2.38;;;1.20;;
12088;SDS011;6107;49.078;8.578;2023-05-10T10:43:26;1.92;;;1.20;;
12088;SDS011;6107;49.078;8.578;2023-05-10T10:46:12;1.25;;;1.15;;
12088;SDS011;6107;49.078;8.578;2023-05-10T10:48:38;1.58;;;1.20;;
12088;SDS011;6107;49.078;8.578;2023-05-10T10:51:04;1.30;;;1.20;;
12088;SDS011;6107;49.078;8.578;2023-05-10T10:53:30;1.75;;;1.60;;
12088;SDS011;6107;49.078;8.578;2023-05-10T10:56:05;3.60;;;1.25;;
12088;SDS011;6107;49.078;8.578;2023-05-10T10:58:33;2.50;;;1.40;;
12088;SDS011;6107;49.078;8.578;2023-05-10T11:01:12;3.65;;;1.40;;
12088;SDS011;6107;49.078;8.578;2023-05-10T11:03:54;2.33;;;1.30;;
12088;SDS011;6107;49.078;8.578;2023-05-10T11:06:40;3.20;;;1.35;;
12088;SDS011;6107;49.078;8.578;2023-05-10T11:09:07;3.03;;;1.30;;
12088;SDS011;6107;49.078;8.578;2023-05-10T11:11:35;2.95;;;1.73;;
12088;SDS011;6107;49.078;8.578;2023-05-10T11:14:07;2.78;;;1.98;;
12088;SDS011;6107;49.078;8.578;2023-05-10T11:16:42;1.98;;;1.60;;
12088;SDS011;6107;49.078;8.578;2023-05-10T11:19:12;3.80;;;1.65;;
12088;SDS011;6107;49.078;8.578;2023-05-10T11:21:45;3.17;;;1.80;;
12088;SDS011;6107;49.078;8.578;2023-05-10T11:24:20;3.47;;;2.17;;
12088;SDS011;6107;49.078;8.578;2023-05-10T11:26:49;5.18;;;1.98;;
12088;SDS011;6107;49.078;8.578;2023-05-10T11:29:16;3.42;;;2.03;;
12088;SDS011;6107;49.078;8.578;2023-05-10T11:31:42;3.38;;;2.13;;
12088;SDS011;6107;49.078;8.578;2023-05-10T11:34:09;3.78;;;1.92;;
12088;SDS011;6107;49.078;8.578;2023-05-10T11:36:35;4.28;;;1.70;;
12088;SDS011;6107;49.078;8.578;2023-05-10T11:39:01;3.53;;;1.60;;
12088;SDS011;6107;49.078;8.578;2023-05-10T11:41:28;2.75;;;1.75;;
12088;SDS011;6107;49.078;8.578;2023-05-10T11:43:54;3.72;;;1.95;;
12088;SDS011;6107;49.078;8.578;2023-05-10T11:46:21;2.22;;;1.85;;
12088;SDS011;6107;49.078;8.578;2023-05-10T11:48:54;2.40;;;1.70;;
12088;SDS011;6107;49.078;8.578;2023-05-10T11:51:26;4.07;;;2.10;;
12088;SDS011;6107;49.078;8.578;2023-05-10T11:53:55;2.35;;;1.75;;
12088;SDS011;6107;49.078;8.578;2023-05-10T11:56:21;2.15;;;1.60;;
12088;SDS011;6107;49.078;8.578;2023-05-10T11:58:55;2.40;;;1.50;;
12088;SDS011;6107;49.078;8.578;2023-05-10T12:01:21;2.15;;;1.60;;
12088;SDS011;6107;49.078;8.578;2023-05-10T12:03:48;2.38;;;1.55;;
12088;SDS011;6107;49.078;8.578;2023-05-10T12:06:15;4.93;;;1.50;;
12088;SDS011;6107;49.078;8.578;2023-05-10T12:08:44;1.50;;;1.40;;
12088;SDS011;6107;49.078;8.578;2023-05-10T12:11:11;2.92;;;1.50;;
12088;SDS011;6107;49.078;8.578;2023-05-10T12:13:38;1.63;;;1.40;;
12088;SDS011;6107;49.078;8.578;2023-05-10T12:16:16;1.80;;;1.40;;
12088;SDS011;6107;49.078;8.578;2023-05-10T12:18:52;1.95;;;1.40;;
12088;SDS011;6107;49.078;8.578;2023-05-10T12:21:20;1.10;;;1.00;;
12088;SDS011;6107;49.078;8.578;2023-05-10T12:23:47;3.00;;;1.33;;
12088;SDS011;6107;49.078;8.578;2023-05-10T12:26:15;3.00;;;1.20;;
12088;SDS011;6107;49.078;8.578;2023-05-10T12:28:41;6.85;;;1.23;;
12088;SDS011;6107;49.078;8.578;2023-05-10T12:31:06;3.45;;;1.30;;
12088;SDS011;6107;49.078;8.578;2023-05-10T12:33:39;2.38;;;1.10;;
12088;SDS011;6107;49.078;8.578;2023-05-10T12:36:07;3.42;;;1.30;;
12088;SDS011;6107;49.078;8.578;2023-05-10T12:38:41;1.92;;;1.20;;
12088;SDS011;6107;49.078;8.578;2023-05-10T12:41:16;1.20;;;1.10;;
12088;SDS011;6107;49.078;8.578;2023-05-10T12:43:42;3.17;;;1.10;;
12088;SDS011;6107;49.078;8.578;2023-05-10T12:46:09;2.10;;;1.30;;
12088;SDS011;6107;49.078;8.578;2023-05-10T12:48:42;2.20;;;1.23;;
12088;SDS011;6107;49.078;8.578;2023-05-10T12:51:09;2.75;;;1.20;;
12088;SDS011;6107;49.078;8.578;2023-05-10T12:53:37;2.40;;;1.30;;
12088;SDS011;6107;49.078;8.578;2023-05-10T12:56:03;1.33;;;1.20;;
12088;SDS011;6107;49.078;8.578;2023-05-10T12:58:29;1.42;;;1.20;;
12088;SDS011;6107;49.078;8.578;2023-05-10T13:00:55;4.22;;;1.50;;
12088;SDS011;6107;49.078;8.578;2023-05-10T13:03:21;2.65;;;1.33;;
12088;SDS011;6107;49.078;8.578;2023-05-10T13:05:47;1.48;;;1.20;;
12088;SDS011;6107;49.078;8.578;2023-05-10T13:08:12;1.58;;;1.48;;
12088;SDS011;6107;49.078;8.578;2023-05-10T13:10:38;2.08;;;1.35;;
12088;SDS011;6107;49.078;8.578;2023-05-10T13:13:04;4.05;;;1.40;;
12088;SDS011;6107;49.078;8.578;2023-05-10T13:15:30;4.03;;;1.67;;
12088;SDS011;6107;49.078;8.578;2023-05-10T13:17:55;1.88;;;1.20;;
12088;SDS011;6107;49.078;8.578;2023-05-10T13:20:21;1.42;;;1.30;;
12088;SDS011;6107;49.078;8.578;2023-05-10T13:22:46;2.00;;;1.40;;
12088;SDS011;6107;49.078;8.578;2023-05-10T13:25:12;2.03;;;1.20;;
12088;SDS011;6107;49.078;8.578;2023-05-10T13:27:41;1.60;;;1.40;;
12088;SDS011;6107;49.078;8.578;2023-05-10T13:30:10;2.70;;;1.50;;
12088;SDS011;6107;49.078;8.578;2023-05-10T13:32:36;2.08;;;1.48;;
12088;SDS011;6107;49.078;8.578;2023-05-10T13:35:02;2.20;;;1.30;;
12088;SDS011;6107;49.078;8.578;2023-05-10T13:37:30;1.98;;;1.40;;
12088;SDS011;6107;49.078;8.578;2023-05-10T13:39:57;4.07;;;1.50;;
12088;SDS011;6107;49.078;8.578;2023-05-10T13:42:22;27.17;;;1.85;;
12088;SDS011;6107;49.078;8.578;2023-05-10T13:44:48;3.13;;;1.13;;
12088;SDS011;6107;49.078;8.578;2023-05-10T13:47:14;3.72;;;1.10;;
12088;SDS011;6107;49.078;8.578;2023-05-10T13:49:40;1.83;;;1.10;;
12088;SDS011;6107;49.078;8.578;2023-05-10T13:52:05;1.83;;;1.40;;
12088;SDS011;6107;49.078;8.578;2023-05-10T13:54:34;0.90;;;0.90;;
12088;SDS011;6107;49.078;8.578;2023-05-10T13:57:00;1.02;;;0.93;;
12088;SDS011;6107;49.078;8.578;2023-05-10T13:59:26;1.63;;;1.50;;
12088;SDS011;6107;49.078;8.578;2023-05-10T14:01:51;3.38;;;1.02;;
12088;SDS011;6107;49.078;8.578;2023-05-10T14:04:17;2.33;;;0.90;;
12088;SDS011;6107;49.078;8.578;2023-05-10T14:06:43;1.55;;;1.00;;
12088;SDS011;6107;49.078;8.578;2023-05-10T14:09:08;1.05;;;0.90;;
12088;SDS011;6107;49.078;8.578;2023-05-10T14:11:34;1.13;;;0.90;;
12088;SDS011;6107;49.078;8.578;2023-05-10T14:13:59;1.13;;;0.80;;
12088;SDS011;6107;49.078;8.578;2023-05-10T14:16:25;1.75;;;0.85;;
12088;SDS011;6107;49.078;8.578;2023-05-10T14:18:51;1.10;;;1.00;;
12088;SDS011;6107;49.078;8.578;2023-05-10T14:21:17;1.98;;;1.00;;
12088;SDS011;6107;49.078;8.578;2023-05-10T14:23:42;1.23;;;0.90;;
12088;SDS011;6107;49.078;8.578;2023-05-10T14:26:08;0.90;;;0.90;;
12088;SDS011;6107;49.078;8.578;2023-05-10T14:28:34;1.50;;;1.00;;
12088;SDS011;6107;49.078;8.578;2023-05-10T14:30:59;1.15;;;1.00;;
12088;SDS011;6107;49.078;8.578;2023-05-10T14:33:25;1.58;;;0.80;;
12088;SDS011;6107;49.078;8.578;2023-05-10T14:35:50;1.73;;;0.90;;
12088;SDS011;6107;49.078;8.578;2023-05-10T14:38:16;1.83;;;1.23;;
12088;SDS011;6107;49.078;8.578;2023-05-10T14:40:41;0.98;;;0.80;;
12088;SDS011;6107;49.078;8.578;2023-05-10T14:43:07;2.25;;;1.00;;
12088;SDS011;6107;49.078;8.578;2023-05-10T14:45:33;2.45;;;0.88;;
12088;SDS011;6107;49.078;8.578;2023-05-10T14:47:59;1.15;;;0.90;;
12088;SDS011;6107;49.078;8.578;2023-05-10T14:50:25;2.20;;;0.93;;
12088;SDS011;6107;49.078;8.578;2023-05-10T14:52:51;2.75;;;1.00;;
12088;SDS011;6107;49.078;8.578;2023-05-10T14:55:16;0.85;;;0.85;;
12088;SDS011;6107;49.078;8.578;2023-05-10T14:57:41;2.22;;;1.05;;
12088;SDS011;6107;49.078;8.578;2023-05-10T15:00:09;1.60;;;1.10;;
12088;SDS011;6107;49.078;8.578;2023-05-10T15:02:35;2.80;;;0.90;;
12088;SDS011;6107;49.078;8.578;2023-05-10T15:05:00;3.63;;;1.15;;
12088;SDS011;6107;49.078;8.578;2023-05-10T15:07:26;2.33;;;0.88;;
12088;SDS011;6107;49.078;8.578;2023-05-10T15:09:51;4.25;;;1.10;;
12088;SDS011;6107;49.078;8.578;2023-05-10T15:12:17;2.40;;;0.90;;
12088;SDS011;6107;49.078;8.578;2023-05-10T15:14:43;2.33;;;0.88;;